Time;durP1;ratioP1;P1;durP2;ratioP2;P2;SDS_P1;SDS_P2;PMS_P1;PMS_P2;Temp;Humidity;BMP_temperature;BMP_pressure;BME280_temperature;BME280_humidity;BME280_pressure;Samples;Min_cycle;Max_cycle;Signal;HPM_P1;HPM_P2
2022/06/08 00:00:32;;;;;;;;;;;22.00;57.90;;;;;;5169571;27;19923;-54
2022/06/08 00:03:00;;;;;;;;;;;22.00;57.50;;;;;;5161796;27;19923;-54
2022/06/08 00:05:25;;;;;;;;;;;22.00;57.10;;;;;;5145175;27;19923;-55
2022/06/08 00:07:51;;;;;;;;;;;22.00;57.30;;;;;;5169938;27;19980;-56
2022/06/08 00:10:17;;;;;;;;;;;22.00;57.30;;;;;;5164579;27;19926;-56
2022/06/08 00:12:43;;;;;;;;;;;22.00;57.20;;;;;;5164482;27;19922;-54
2022/06/08 00:15:09;;;;;;;;;;;22.10;56.90;;;;;;5170153;27;19927;-54
2022/06/08 00:17:35;;;;;;;;;;;22.10;56.70;;;;;;5164114;27;19923;-55
2022/06/08 00:20:02;;;;;;;;;;;22.00;56.60;;;;;;5167870;27;20414;-55
2022/06/08 00:22:28;;;;;;;;;;;22.10;56.30;;;;;;5163069;27;19945;-55
2022/06/08 00:24:54;;;;;;;;;;;22.20;56.00;;;;;;5163640;27;19922;-53
2022/06/08 00:27:19;;;;;;;;;;;22.20;56.10;;;;;;5169503;27;20279;-55
2022/06/08 00:29:45;;;;;;;;;;;22.20;55.90;;;;;;5163842;27;19929;-56
2022/06/08 00:32:11;;;;;;;;;;;22.30;55.70;;;;;;5164066;27;20414;-54
2022/06/08 00:34:37;;;;;;;;;;;22.30;55.50;;;;;;5169407;27;20380;-55
2022/06/08 00:37:02;;;;;;;;;;;22.30;55.40;;;;;;5163802;27;19985;-56
2022/06/08 00:39:28;;;;;;;;;;;22.40;55.20;;;;;;5164585;27;19922;-57
2022/06/08 00:41:55;;;;;;;;;;;22.30;55.10;;;;;;5165316;27;20301;-56
2022/06/08 00:44:26;;;;;;;;;;;21.40;56.20;;;;;;5163052;27;19940;-56
2022/06/08 00:46:52;;;;;;;;;;;21.30;55.40;;;;;;5149337;27;19927;-57
2022/06/08 00:49:28;;;;;;;;;;;21.50;56.40;;;;;;5142868;27;19927;-58
2022/06/08 00:51:54;;;;;;;;;;;21.50;57.30;;;;;;5163756;27;19923;-58
2022/06/08 00:54:22;;;;;;;;;;;21.70;56.80;;;;;;5168982;27;19923;-58
2022/06/08 00:56:50;;;;;;;;;;;21.60;56.40;;;;;;5161508;27;19975;-57
2022/06/08 00:59:16;;;;;;;;;;;21.60;56.30;;;;;;5162143;27;20134;-57
2022/06/08 01:01:41;;;;;;;;;;;21.60;56.10;;;;;;5168844;27;19984;-59
2022/06/08 01:04:11;;;;;;;;;;;21.70;55.70;;;;;;5163247;27;19922;-60
2022/06/08 01:06:37;;;;;;;;;;;21.60;55.70;;;;;;5165797;27;19933;-58
2022/06/08 01:09:03;;;;;;;;;;;21.70;55.50;;;;;;5167055;27;19923;-60
2022/06/08 01:11:32;;;;;;;;;;;21.70;55.30;;;;;;5144989;27;19923;-60
2022/06/08 01:13:59;;;;;;;;;;;21.70;55.20;;;;;;5168751;27;20412;-59
2022/06/08 01:16:25;;;;;;;;;;;21.60;55.10;;;;;;5140895;27;19923;-59
2022/06/08 01:18:51;;;;;;;;;;;21.70;54.90;;;;;;5142417;27;19975;-57
2022/06/08 01:21:19;;;;;;;;;;;21.70;55.00;;;;;;5168806;27;19933;-59
2022/06/08 01:23:46;;;;;;;;;;;21.70;54.80;;;;;;5163600;27;20013;-58
2022/06/08 01:26:17;;;;;;;;;;;21.60;54.80;;;;;;5144085;27;20209;-58
2022/06/08 01:29:01;;;;;;;;;;;21.60;54.80;;;;;;5150562;27;19933;-60
2022/06/08 01:31:45;;;;;;;;;;;21.60;54.50;;;;;;5145196;27;19929;-60
2022/06/08 01:34:13;;;;;;;;;;;21.60;54.50;;;;;;5161517;27;19923;-58
2022/06/08 01:36:39;;;;;;;;;;;21.70;54.50;;;;;;5149162;27;19923;-60
2022/06/08 01:39:15;;;;;;;;;;;21.60;54.50;;;;;;5163486;27;20017;-58
2022/06/08 01:42:13;;;;;;;;;;;21.60;54.50;;;;;;5163433;27;19929;-59
2022/06/08 01:45:28;;;;;;;;;;;21.30;53.30;;;;;;5108454;27;19936;-57
2022/06/08 01:47:39;;;;;;;;;;;21.00;51.80;;;;;;5148047;27;20441;-60
2022/06/08 01:50:14;;;;;;;;;;;21.10;52.70;;;;;;5163342;27;20013;-58
2022/06/08 01:52:40;;;;;;;;;;;21.30;54.30;;;;;;5147541;27;20381;-60
2022/06/08 01:55:07;;;;;;;;;;;21.30;54.90;;;;;;5161435;27;19926;-60
2022/06/08 01:57:51;;;;;;;;;;;21.30;55.10;;;;;;5144623;27;19927;-57
2022/06/08 02:00:18;;;;;;;;;;;21.30;55.20;;;;;;5168399;27;20013;-59
2022/06/08 02:02:53;;;;;;;;;;;21.40;55.00;;;;;;5144702;27;20009;-59
2022/06/08 02:05:34;;;;;;;;;;;21.40;54.90;;;;;;5144867;27;19922;-57
2022/06/08 02:08:22;;;;;;;;;;;21.50;54.80;;;;;;5168463;27;20382;-57
2022/06/08 02:10:55;;;;;;;;;;;21.50;54.80;;;;;;5142460;27;19960;-60
2022/06/08 02:13:26;;;;;;;;;;;21.60;55.00;;;;;;5162065;27;19930;-57
2022/06/08 02:15:53;;;;;;;;;;;21.60;55.00;;;;;;5132238;27;20013;-59
2022/06/08 02:18:21;;;;;;;;;;;21.60;54.70;;;;;;5163209;27;19922;-59
2022/06/08 02:20:53;;;;;;;;;;;21.50;54.70;;;;;;5144718;27;19926;-58
2022/06/08 02:23:20;;;;;;;;;;;21.50;54.80;;;;;;5168078;27;19923;-58
2022/06/08 02:25:51;;;;;;;;;;;21.50;54.70;;;;;;5162839;27;19927;-58
2022/06/08 02:28:24;;;;;;;;;;;21.60;54.40;;;;;;5161653;27;20064;-59
2022/06/08 02:30:51;;;;;;;;;;;21.50;54.40;;;;;;5146790;27;19942;-58
2022/06/08 02:36:09;;;;;;;;;;;21.50;54.20;;;;;;5162858;27;20271;-58
2022/06/08 02:38:37;;;;;;;;;;;21.60;54.20;;;;;;5149318;27;19975;-59
2022/06/08 02:41:03;;;;;;;;;;;21.60;54.10;;;;;;5144664;27;20271;-59
2022/06/08 02:43:40;;;;;;;;;;;21.50;54.30;;;;;;5144905;27;19983;-57
2022/06/08 02:46:07;;;;;;;;;;;21.50;54.50;;;;;;5167122;27;19923;-59
2022/06/08 02:48:33;;;;;;;;;;;21.50;54.40;;;;;;5125082;27;20314;-59
2022/06/08 02:50:59;;;;;;;;;;;21.50;54.40;;;;;;5167213;27;19930;-59
2022/06/08 02:53:33;;;;;;;;;;;21.50;54.20;;;;;;5162598;27;20026;-59
2022/06/08 02:56:03;;;;;;;;;;;21.60;53.90;;;;;;5162590;27;20425;-59
2022/06/08 02:58:36;;;;;;;;;;;21.50;54.00;;;;;;5149035;27;20302;-58
2022/06/08 03:01:05;;;;;;;;;;;21.60;53.80;;;;;;5144634;27;20181;-60
2022/06/08 03:03:51;;;;;;;;;;;21.50;53.90;;;;;;5162931;27;20396;-55
2022/06/08 03:06:18;;;;;;;;;;;21.40;54.10;;;;;;5165376;27;19922;-58
2022/06/08 03:08:49;;;;;;;;;;;21.40;54.10;;;;;;5147610;27;19923;-55
2022/06/08 03:11:15;;;;;;;;;;;21.50;54.00;;;;;;5166543;27;19922;-55
2022/06/08 03:13:43;;;;;;;;;;;21.50;53.70;;;;;;5171234;27;20396;-56
2022/06/08 03:16:09;;;;;;;;;;;21.50;53.90;;;;;;5166545;27;19923;-56
2022/06/08 03:18:35;;;;;;;;;;;21.60;53.70;;;;;;5148285;27;20288;-56
2022/06/08 03:21:01;;;;;;;;;;;21.70;53.40;;;;;;5170942;27;20006;-52
2022/06/08 03:23:27;;;;;;;;;;;21.60;53.30;;;;;;5164970;27;19922;-55
2022/06/08 03:25:53;;;;;;;;;;;21.60;53.40;;;;;;5168812;27;19923;-54
2022/06/08 03:28:19;;;;;;;;;;;21.50;53.60;;;;;;5167788;27;19923;-56
2022/06/08 03:30:45;;;;;;;;;;;21.50;53.90;;;;;;5166496;27;20418;-55
2022/06/08 03:33:10;;;;;;;;;;;21.50;53.90;;;;;;5171036;27;20347;-55
2022/06/08 03:35:36;;;;;;;;;;;21.60;53.60;;;;;;5166464;27;19967;-55
2022/06/08 03:38:02;;;;;;;;;;;21.60;53.60;;;;;;5166789;27;20014;-57
2022/06/08 03:40:28;;;;;;;;;;;21.70;53.30;;;;;;5170915;27;19994;-55
2022/06/08 03:42:54;;;;;;;;;;;21.70;53.30;;;;;;5164386;27;19984;-54
2022/06/08 03:45:20;;;;;;;;;;;21.70;53.10;;;;;;5167355;27;19927;-56
2022/06/08 03:47:46;;;;;;;;;;;21.70;52.80;;;;;;5169204;27;20369;-54
2022/06/08 03:50:14;;;;;;;;;;;21.30;51.50;;;;;;5166457;27;19927;-56
2022/06/08 03:52:40;;;;;;;;;;;21.10;50.50;;;;;;5170955;27;19966;-54
2022/06/08 03:55:06;;;;;;;;;;;21.10;50.00;;;;;;5166329;27;19947;-54
2022/06/08 03:57:32;;;;;;;;;;;21.20;51.90;;;;;;5166332;27;19922;-54
2022/06/08 04:00:00;;;;;;;;;;;21.30;52.70;;;;;;5169308;27;19929;-57
2022/06/08 04:02:26;;;;;;;;;;;21.40;52.70;;;;;;5165039;27;19927;-55
2022/06/08 04:04:52;;;;;;;;;;;21.40;52.70;;;;;;5166040;27;20294;-52
2022/06/08 04:07:17;;;;;;;;;;;21.40;52.80;;;;;;5170421;27;19923;-55
2022/06/08 04:09:43;;;;;;;;;;;21.60;52.40;;;;;;5165993;27;20358;-52
2022/06/08 04:12:09;;;;;;;;;;;21.60;52.10;;;;;;5150061;27;19956;-54
2022/06/08 04:14:35;;;;;;;;;;;21.70;51.90;;;;;;5166056;27;19930;-55
2022/06/08 04:17:01;;;;;;;;;;;21.60;51.90;;;;;;5147735;27;19923;-53
2022/06/08 04:19:27;;;;;;;;;;;21.50;52.10;;;;;;5167715;27;19926;-52
2022/06/08 04:21:53;;;;;;;;;;;21.40;52.50;;;;;;5165180;27;20025;-54
2022/06/08 04:24:19;;;;;;;;;;;21.60;52.10;;;;;;5165617;27;20518;-55
2022/06/08 04:26:45;;;;;;;;;;;21.60;51.70;;;;;;5170135;27;20017;-54
2022/06/08 04:29:10;;;;;;;;;;;21.60;51.50;;;;;;5165736;27;19979;-54
2022/06/08 04:31:36;;;;;;;;;;;21.70;51.30;;;;;;5170180;27;19923;-53
2022/06/08 04:34:02;;;;;;;;;;;21.60;51.30;;;;;;5146755;27;19923;-52
2022/06/08 04:36:28;;;;;;;;;;;21.60;51.30;;;;;;5165016;27;20003;-53
2022/06/08 04:38:54;;;;;;;;;;;21.60;51.30;;;;;;5149730;27;19930;-53
2022/06/08 04:41:20;;;;;;;;;;;21.50;51.60;;;;;;5165343;27;19953;-53
2022/06/08 04:43:46;;;;;;;;;;;21.50;51.40;;;;;;5165387;27;20204;-55
2022/06/08 04:46:17;;;;;;;;;;;21.60;51.20;;;;;;5169775;27;19945;-54
2022/06/08 04:48:44;;;;;;;;;;;21.70;51.00;;;;;;5165876;27;20307;-52
2022/06/08 04:51:10;;;;;;;;;;;21.70;50.90;;;;;;5166563;27;19930;-54
2022/06/08 04:53:39;;;;;;;;;;;21.70;50.80;;;;;;5169071;27;19931;-55
2022/06/08 04:56:05;;;;;;;;;;;21.70;50.90;;;;;;5163682;27;19990;-54
2022/06/08 04:58:30;;;;;;;;;;;21.60;51.10;;;;;;5168982;27;20017;-52
2022/06/08 05:00:56;;;;;;;;;;;21.60;51.30;;;;;;5165608;27;19968;-52
2022/06/08 05:03:22;;;;;;;;;;;21.60;51.30;;;;;;5165649;27;20023;-52
2022/06/08 05:05:48;;;;;;;;;;;21.60;51.00;;;;;;5169412;27;19930;-51
2022/06/08 05:08:16;;;;;;;;;;;21.70;50.80;;;;;;5165753;27;20533;-51
2022/06/08 05:10:41;;;;;;;;;;;21.80;50.60;;;;;;5165767;27;20009;-52
2022/06/08 05:13:07;;;;;;;;;;;21.80;50.40;;;;;;5168811;27;20395;-53
2022/06/08 05:15:34;;;;;;;;;;;21.80;50.20;;;;;;5163758;27;19970;-52
2022/06/08 05:18:00;;;;;;;;;;;21.70;50.60;;;;;;5168964;27;19923;-49
2022/06/08 05:20:26;;;;;;;;;;;21.70;50.60;;;;;;5165193;27;19923;-51
2022/06/08 05:22:52;;;;;;;;;;;21.60;50.70;;;;;;5165350;27;19930;-48
2022/06/08 05:25:19;;;;;;;;;;;21.60;50.30;;;;;;5169329;27;19926;-48
2022/06/08 05:27:45;;;;;;;;;;;21.70;50.10;;;;;;5165551;27;20022;-49
2022/06/08 05:30:11;;;;;;;;;;;21.70;50.00;;;;;;5165142;27;20431;-47
2022/06/08 05:32:37;;;;;;;;;;;21.80;49.80;;;;;;5167526;27;19923;-48
2022/06/08 05:35:03;;;;;;;;;;;21.80;49.50;;;;;;5164227;27;19979;-48
2022/06/08 05:37:29;;;;;;;;;;;21.80;49.60;;;;;;5168427;27;19923;-52
2022/06/08 05:39:54;;;;;;;;;;;21.80;49.90;;;;;;5146821;27;20435;-48
2022/06/08 05:42:20;;;;;;;;;;;21.70;50.20;;;;;;5165373;27;19927;-49
2022/06/08 05:44:46;;;;;;;;;;;21.80;50.10;;;;;;5169048;27;19923;-47
2022/06/08 05:47:12;;;;;;;;;;;21.80;50.00;;;;;;5146628;27;19927;-49
2022/06/08 05:49:39;;;;;;;;;;;21.80;49.90;;;;;;5146517;27;19923;-49
2022/06/08 05:52:07;;;;;;;;;;;21.80;49.80;;;;;;5167217;27;19998;-47
2022/06/08 05:54:33;;;;;;;;;;;21.80;49.50;;;;;;5164696;27;20013;-46
2022/06/08 05:56:59;;;;;;;;;;;21.30;48.30;;;;;;5165578;27;20396;-51
2022/06/08 05:59:24;;;;;;;;;;;21.20;48.00;;;;;;5168166;27;20401;-45
2022/06/08 06:01:51;;;;;;;;;;;21.20;48.60;;;;;;5165011;27;19922;-47
2022/06/08 06:04:16;;;;;;;;;;;21.40;50.10;;;;;;5150480;27;20074;-48
2022/06/08 06:06:45;;;;;;;;;;;21.40;50.50;;;;;;5165178;27;19926;-47
2022/06/08 06:09:11;;;;;;;;;;;21.40;50.70;;;;;;5163952;27;19971;-47
2022/06/08 06:11:37;;;;;;;;;;;21.40;51.00;;;;;;5167802;27;19926;-46
2022/06/08 06:14:03;;;;;;;;;;;21.60;50.80;;;;;;5164720;27;20029;-48
2022/06/08 06:16:29;;;;;;;;;;;21.70;50.30;;;;;;5164640;27;20534;-46
2022/06/08 06:18:55;;;;;;;;;;;21.70;50.10;;;;;;5168570;27;20009;-46
2022/06/08 06:21:25;;;;;;;;;;;21.80;49.80;;;;;;5165174;27;20457;-47
2022/06/08 06:23:54;;;;;;;;;;;21.80;49.70;;;;;;5168749;27;19923;-46
2022/06/08 06:26:19;;;;;;;;;;;21.80;49.50;;;;;;5165022;27;19962;-46
2022/06/08 06:28:45;;;;;;;;;;;21.80;49.80;;;;;;5163275;27;20274;-47
2022/06/08 06:31:13;;;;;;;;;;;21.70;50.20;;;;;;5149213;27;20017;-46
2022/06/08 06:33:39;;;;;;;;;;;21.80;49.80;;;;;;5146218;27;20421;-46
2022/06/08 06:36:05;;;;;;;;;;;21.80;49.60;;;;;;5164791;27;19933;-47
2022/06/08 06:38:31;;;;;;;;;;;21.80;49.40;;;;;;5168589;27;19946;-47
2022/06/08 06:40:57;;;;;;;;;;;21.80;49.20;;;;;;5164103;27;20059;-46
2022/06/08 06:43:23;;;;;;;;;;;21.80;49.20;;;;;;5166229;27;20374;-51
2022/06/08 06:45:49;;;;;;;;;;;21.80;49.20;;;;;;5166116;27;19927;-49
2022/06/08 06:48:15;;;;;;;;;;;21.80;49.50;;;;;;5163626;27;20014;-47
2022/06/08 06:50:41;;;;;;;;;;;21.80;49.80;;;;;;5168127;27;20014;-49
2022/06/08 06:53:07;;;;;;;;;;;21.80;49.50;;;;;;5165211;27;20013;-45
2022/06/08 06:55:33;;;;;;;;;;;21.80;49.40;;;;;;5165286;27;19942;-48
2022/06/08 06:57:59;;;;;;;;;;;21.90;49.20;;;;;;5167703;27;19923;-49
2022/06/08 07:00:25;;;;;;;;;;;21.90;49.20;;;;;;5142690;27;19930;-51
2022/06/08 07:02:50;;;;;;;;;;;22.00;49.10;;;;;;5162898;27;19971;-55
2022/06/08 07:05:18;;;;;;;;;;;22.00;49.00;;;;;;5164921;27;20026;-50
2022/06/08 07:07:44;;;;;;;;;;;21.90;49.20;;;;;;5161771;27;19927;-50
2022/06/08 07:10:10;;;;;;;;;;;21.80;49.50;;;;;;5167078;27;20025;-49
2022/06/08 07:12:35;;;;;;;;;;;21.80;49.70;;;;;;5162115;27;19975;-51
2022/06/08 07:15:01;;;;;;;;;;;21.90;49.30;;;;;;5142403;27;19977;-51
2022/06/08 07:17:27;;;;;;;;;;;22.00;49.00;;;;;;5167718;27;19930;-50
2022/06/08 07:19:53;;;;;;;;;;;22.00;48.90;;;;;;5161659;27;20033;-49
2022/06/08 07:22:18;;;;;;;;;;;22.00;48.70;;;;;;5160086;27;20390;-52
2022/06/08 07:24:44;;;;;;;;;;;22.10;48.60;;;;;;5165437;27;19933;-52
2022/06/08 07:27:10;;;;;;;;;;;22.00;48.80;;;;;;5161336;27;20063;-50
2022/06/08 07:29:36;;;;;;;;;;;21.90;49.10;;;;;;5166986;27;19931;-48
2022/06/08 07:32:02;;;;;;;;;;;21.90;49.40;;;;;;5161823;27;19923;-52
2022/06/08 07:34:28;;;;;;;;;;;21.90;49.20;;;;;;5161768;27;19926;-50
2022/06/08 07:36:53;;;;;;;;;;;22.00;48.80;;;;;;5148424;27;19937;-57
2022/06/08 07:39:22;;;;;;;;;;;22.00;48.80;;;;;;5161343;27;19923;-50
2022/06/08 07:41:49;;;;;;;;;;;22.10;48.60;;;;;;5140185;27;19930;-51
2022/06/08 07:44:16;;;;;;;;;;;22.10;48.50;;;;;;5165893;27;20290;-53
2022/06/08 07:46:42;;;;;;;;;;;22.00;48.90;;;;;;5160904;27;20433;-53
2022/06/08 07:51:53;;;;;;;;;;;21.90;49.40;;;;;;5166755;27;20433;-54
2022/06/08 07:54:22;;;;;;;;;;;22.10;48.90;;;;;;5163692;27;19969;-50
2022/06/08 07:56:48;;;;;;;;;;;22.10;48.70;;;;;;5169831;27;19933;-54
2022/06/08 07:59:14;;;;;;;;;;;22.10;48.60;;;;;;5163304;27;19923;-51
2022/06/08 08:01:40;;;;;;;;;;;21.90;48.00;;;;;;5162928;27;20392;-50
2022/06/08 08:04:06;;;;;;;;;;;21.50;47.10;;;;;;5169619;27;19937;-53
2022/06/08 08:06:31;;;;;;;;;;;21.50;46.80;;;;;;5164505;27;19933;-49
2022/06/08 08:08:59;;;;;;;;;;;21.50;47.60;;;;;;5164528;27;19927;-49
2022/06/08 08:11:26;;;;;;;;;;;21.70;48.80;;;;;;5170104;27;19931;-49
2022/06/08 08:13:52;;;;;;;;;;;21.80;49.10;;;;;;5164475;27;20038;-52
2022/06/08 08:16:18;;;;;;;;;;;21.80;49.50;;;;;;5166135;27;19977;-58
2022/06/08 08:18:44;;;;;;;;;;;21.80;49.60;;;;;;5165547;27;20169;-49
2022/06/08 08:21:09;;;;;;;;;;;21.80;49.40;;;;;;5144950;27;19930;-54
2022/06/08 08:23:35;;;;;;;;;;;22.00;49.10;;;;;;5169546;27;19922;-50
2022/06/08 08:26:01;;;;;;;;;;;22.00;49.00;;;;;;5164448;27;19923;-51
2022/06/08 08:28:27;;;;;;;;;;;22.10;48.80;;;;;;5164301;27;20022;-52
2022/06/08 08:30:53;;;;;;;;;;;22.10;48.60;;;;;;5169760;27;20293;-52
2022/06/08 08:33:18;;;;;;;;;;;22.10;48.60;;;;;;5163925;27;19995;-50
2022/06/08 08:35:45;;;;;;;;;;;21.90;49.10;;;;;;5162378;27;19930;-53
2022/06/08 08:38:10;;;;;;;;;;;21.90;49.20;;;;;;5167515;27;19930;-51
2022/06/08 08:40:43;;;;;;;;;;;22.00;48.80;;;;;;5163514;27;19934;-52
2022/06/08 08:43:11;;;;;;;;;;;22.10;48.70;;;;;;5150909;27;20017;-52
2022/06/08 08:45:45;;;;;;;;;;;22.20;48.50;;;;;;5164101;27;19926;-51
2022/06/08 08:48:31;;;;;;;;;;;22.10;48.50;;;;;;5163893;27;19933;-49
2022/06/08 08:51:06;;;;;;;;;;;22.20;48.10;;;;;;5150638;27;20018;-52
2022/06/08 08:53:36;;;;;;;;;;;22.10;48.30;;;;;;5166167;27;19923;-49
2022/06/08 08:56:03;;;;;;;;;;;22.10;48.40;;;;;;5161493;27;19975;-48
2022/06/08 08:58:30;;;;;;;;;;;22.10;48.50;;;;;;5168856;27;19937;-50
2022/06/08 09:00:57;;;;;;;;;;;22.20;48.30;;;;;;5163710;27;19935;-53
2022/06/08 09:03:27;;;;;;;;;;;22.20;48.20;;;;;;5164009;27;19923;-50
2022/06/08 09:06:19;;;;;;;;;;;21.00;49.60;;;;;;5168681;27;19926;-46
2022/06/08 09:08:50;;;;;;;;;;;19.70;52.60;;;;;;5159191;27;19931;-50
2022/06/08 09:11:20;;;;;;;;;;;20.50;52.60;;;;;;5163553;27;20017;-49
2022/06/08 09:13:47;;;;;;;;;;;21.30;50.20;;;;;;5166220;27;19922;-47
2022/06/08 09:16:24;;;;;;;;;;;21.70;49.10;;;;;;5162555;27;19929;-47
2022/06/08 09:18:49;;;;;;;;;;;21.80;48.80;;;;;;5162905;27;19926;-47
2022/06/08 09:21:21;;;;;;;;;;;21.90;48.90;;;;;;5168629;27;19922;-49
2022/06/08 09:23:51;;;;;;;;;;;21.90;49.00;;;;;;5163117;27;19937;-46
2022/06/08 09:26:27;;;;;;;;;;;21.80;49.30;;;;;;5163455;27;20162;-47
2022/06/08 09:28:56;;;;;;;;;;;22.00;49.10;;;;;;5168660;27;20021;-47
2022/06/08 09:31:23;;;;;;;;;;;22.00;48.90;;;;;;5161267;27;20005;-48
2022/06/08 09:33:49;;;;;;;;;;;22.10;48.60;;;;;;5161456;27;20381;-47
2022/06/08 09:36:23;;;;;;;;;;;22.20;48.40;;;;;;5167913;27;19927;-46
2022/06/08 09:38:49;;;;;;;;;;;22.10;48.60;;;;;;5162847;27;20304;-49
2022/06/08 09:41:43;;;;;;;;;;;22.10;48.70;;;;;;5168353;27;19930;-46
2022/06/08 09:44:15;;;;;;;;;;;22.10;48.70;;;;;;5133134;27;19962;-51
2022/06/08 09:53:01;;;;;;;;;;;19.80;51.70;;;;;;5167972;27;19922;-50
2022/06/08 09:55:46;;;;;;;;;;;20.80;51.00;;;;;;5147368;27;19926;-46
2022/06/08 09:58:29;;;;;;;;;;;21.60;48.90;;;;;;5163873;27;19933;-48
2022/06/08 10:00:57;;;;;;;;;;;21.80;48.10;;;;;;5144669;27;20013;-47
2022/06/08 10:03:25;;;;;;;;;;;21.80;47.80;;;;;;5150041;27;19949;-48
2022/06/08 10:05:56;;;;;;;;;;;21.80;47.80;;;;;;5163652;27;19931;-48
2022/06/08 10:08:38;;;;;;;;;;;21.60;47.40;;;;;;5147822;27;19937;-48
2022/06/08 10:11:34;;;;;;;;;;;21.40;46.30;;;;;;5167597;27;19933;-47
2022/06/08 10:14:02;;;;;;;;;;;21.30;45.40;;;;;;5163349;27;20305;-48
2022/06/08 10:16:28;;;;;;;;;;;21.60;47.90;;;;;;5143613;27;19923;-46
2022/06/08 10:18:56;;;;;;;;;;;21.70;48.60;;;;;;5149434;27;19927;-47
2022/06/08 10:21:23;;;;;;;;;;;21.80;48.40;;;;;;5143778;27;19927;-47
2022/06/08 10:23:51;;;;;;;;;;;21.90;48.20;;;;;;5168038;27;19926;-46
2022/06/08 10:26:20;;;;;;;;;;;21.90;47.80;;;;;;5160938;27;19938;-50
2022/06/08 10:28:47;;;;;;;;;;;21.90;47.30;;;;;;5161321;27;20374;-49
2022/06/08 10:31:19;;;;;;;;;;;22.10;46.80;;;;;;5167716;27;19931;-48
2022/06/08 10:33:47;;;;;;;;;;;22.00;46.60;;;;;;5144190;27;20148;-47
2022/06/08 10:36:15;;;;;;;;;;;22.10;46.40;;;;;;5162037;27;21375;-47
2022/06/08 10:38:44;;;;;;;;;;;22.10;46.40;;;;;;5148884;27;20051;-49
2022/06/08 10:43:55;;;;;;;;;;;22.20;46.30;;;;;;5161431;27;19951;-56
2022/06/08 10:46:40;;;;;;;;;;;22.20;45.30;;;;;;5165611;27;19927;-49
2022/06/08 10:49:16;;;;;;;;;;;20.70;47.50;;;;;;5143296;27;20224;-49
2022/06/08 10:51:42;;;;;;;;;;;19.70;51.10;;;;;;5161762;27;20305;-47
2022/06/08 10:57:31;;;;;;;;;;;21.60;47.00;;;;;;5161905;27;20449;-46
2022/06/08 11:00:16;;;;;;;;;;;21.90;46.20;;;;;;5161789;27;19923;-48
2022/06/08 11:02:42;;;;;;;;;;;22.10;45.70;;;;;;5163526;27;20035;-53
2022/06/08 11:05:10;;;;;;;;;;;22.10;45.60;;;;;;5162677;27;19923;-46
2022/06/08 11:08:12;;;;;;;;;;;22.10;45.70;;;;;;5161170;27;19966;-47
2022/06/08 11:10:44;;;;;;;;;;;22.10;45.80;;;;;;5106698;27;19929;-46
2022/06/08 11:13:25;;;;;;;;;;;22.00;45.90;;;;;;5167184;27;20299;-45
2022/06/08 11:16:11;;;;;;;;;;;22.10;45.80;;;;;;5161992;27;19923;-46
2022/06/08 11:18:51;;;;;;;;;;;22.10;45.50;;;;;;5161597;27;19949;-47
2022/06/08 11:21:35;;;;;;;;;;;22.20;45.10;;;;;;5165324;27;19933;-46
2022/06/08 11:24:01;;;;;;;;;;;22.20;45.10;;;;;;5159984;27;20010;-44
2022/06/08 11:26:43;;;;;;;;;;;22.20;45.10;;;;;;5161260;27;20021;-46
2022/06/08 11:29:18;;;;;;;;;;;22.20;45.20;;;;;;5150486;27;20333;-46
2022/06/08 11:31:43;;;;;;;;;;;22.20;45.00;;;;;;5165076;27;20049;-45
2022/06/08 11:34:16;;;;;;;;;;;22.20;44.80;;;;;;5165470;27;20304;-47
2022/06/08 11:36:48;;;;;;;;;;;21.60;44.70;;;;;;5170604;27;19930;-53
2022/06/08 11:39:18;;;;;;;;;;;20.30;46.60;;;;;;5163792;27;19923;-47
2022/06/08 11:41:45;;;;;;;;;;;19.80;47.60;;;;;;5143663;27;20410;-46
2022/06/08 11:44:13;;;;;;;;;;;21.10;45.40;;;;;;5149843;27;20006;-45
2022/06/08 11:46:40;;;;;;;;;;;21.70;44.30;;;;;;5164749;27;19933;-45
2022/06/08 11:49:24;;;;;;;;;;;21.80;44.20;;;;;;5150757;27;20305;-50
2022/06/08 11:51:50;;;;;;;;;;;21.90;44.40;;;;;;5151771;27;19927;-46
2022/06/08 11:54:16;;;;;;;;;;;22.00;44.30;;;;;;5164764;27;20984;-46
2022/06/08 11:56:56;;;;;;;;;;;22.10;44.30;;;;;;5170040;27;19929;-47
2022/06/08 11:59:21;;;;;;;;;;;22.10;44.20;;;;;;5161516;27;19927;-49
2022/06/08 12:01:54;;;;;;;;;;;22.20;44.10;;;;;;5144647;27;20290;-48
2022/06/08 12:04:22;;;;;;;;;;;22.30;44.10;;;;;;5169829;27;20075;-46
2022/06/08 12:06:48;;;;;;;;;;;22.30;44.00;;;;;;5145922;27;20013;-46
2022/06/08 12:09:16;;;;;;;;;;;22.30;44.00;;;;;;5146006;27;19923;-45
2022/06/08 12:11:43;;;;;;;;;;;22.30;44.00;;;;;;5170327;27;19923;-45
2022/06/08 12:14:15;;;;;;;;;;;21.90;44.30;;;;;;5145893;27;19971;-46
2022/06/08 12:16:55;;;;;;;;;;;21.70;43.40;;;;;;5162685;27;20152;-48
2022/06/08 12:19:21;;;;;;;;;;;21.60;42.80;;;;;;5168554;27;20437;-46
2022/06/08 12:21:48;;;;;;;;;;;21.80;44.70;;;;;;5163924;27;19961;-47
2022/06/08 12:24:14;;;;;;;;;;;22.00;45.20;;;;;;5164202;27;20013;-48
2022/06/08 12:26:40;;;;;;;;;;;22.20;44.20;;;;;;5169860;27;19980;-56
2022/06/08 12:29:16;;;;;;;;;;;21.20;43.80;;;;;;5164524;27;19923;-48
2022/06/08 12:31:43;;;;;;;;;;;20.00;45.80;;;;;;5147965;27;20022;-52
2022/06/08 12:34:27;;;;;;;;;;;20.90;44.50;;;;;;5146697;27;20378;-48
2022/06/08 12:36:53;;;;;;;;;;;21.50;43.20;;;;;;5162316;27;19945;-47
2022/06/08 12:39:23;;;;;;;;;;;21.90;42.70;;;;;;5168347;27;19931;-45
2022/06/08 12:41:49;;;;;;;;;;;22.00;42.60;;;;;;5145766;27;19922;-47
2022/06/08 12:44:17;;;;;;;;;;;22.10;42.60;;;;;;5163941;27;19923;-45
2022/06/08 12:46:50;;;;;;;;;;;22.20;42.60;;;;;;5169326;27;19929;-46
2022/06/08 12:49:17;;;;;;;;;;;22.20;42.60;;;;;;5163938;27;19971;-44
2022/06/08 12:51:45;;;;;;;;;;;22.30;42.60;;;;;;5145141;27;20013;-46
2022/06/08 12:54:11;;;;;;;;;;;22.40;42.40;;;;;;5148551;27;20009;-50
2022/06/08 12:56:37;;;;;;;;;;;22.00;42.70;;;;;;5164185;27;19938;-46
2022/06/08 12:59:02;;;;;;;;;;;20.30;46.30;;;;;;5163983;27;20580;-46
2022/06/08 13:01:29;;;;;;;;;;;20.30;46.20;;;;;;5169359;27;19926;-48
2022/06/08 13:03:55;;;;;;;;;;;21.40;43.90;;;;;;5163296;27;19939;-47
2022/06/08 13:06:20;;;;;;;;;;;21.80;43.10;;;;;;5168973;27;20035;-46
2022/06/08 13:08:48;;;;;;;;;;;22.00;43.00;;;;;;5163356;27;20442;-46
2022/06/08 13:11:16;;;;;;;;;;;22.00;42.90;;;;;;5162360;27;19922;-44
2022/06/08 13:13:42;;;;;;;;;;;22.10;42.70;;;;;;5148529;27;19923;-45
2022/06/08 13:16:16;;;;;;;;;;;22.20;42.70;;;;;;5162905;27;20013;-46
2022/06/08 13:18:41;;;;;;;;;;;22.30;42.50;;;;;;5165562;27;19929;-49
2022/06/08 13:21:09;;;;;;;;;;;22.00;42.00;;;;;;5151050;27;20378;-49
2022/06/08 13:23:35;;;;;;;;;;;20.30;45.50;;;;;;5165560;27;19962;-52
2022/06/08 13:26:01;;;;;;;;;;;19.90;46.10;;;;;;5164032;27;20286;-52
2022/06/08 13:28:31;;;;;;;;;;;21.00;44.20;;;;;;5168400;27;19927;-46
2022/06/08 13:30:57;;;;;;;;;;;21.80;42.80;;;;;;5160863;27;19926;-44
2022/06/08 13:36:16;;;;;;;;;;;22.00;42.30;;;;;;5164555;27;19931;-44
2022/06/08 13:38:42;;;;;;;;;;;22.00;42.40;;;;;;5163589;27;19942;-44
2022/06/08 13:41:07;;;;;;;;;;;22.10;42.30;;;;;;5168631;27;19926;-45
2022/06/08 13:43:33;;;;;;;;;;;22.20;42.40;;;;;;5143320;27;19927;-44
2022/06/08 13:45:59;;;;;;;;;;;22.20;42.40;;;;;;5163254;27;19930;-45
2022/06/08 13:48:25;;;;;;;;;;;22.30;42.30;;;;;;5167620;27;19946;-51
2022/06/08 13:50:51;;;;;;;;;;;22.30;42.10;;;;;;5163102;27;19923;-49
2022/06/08 13:53:18;;;;;;;;;;;20.80;45.20;;;;;;5164680;27;19974;-49
2022/06/08 13:55:46;;;;;;;;;;;20.00;46.90;;;;;;5168196;27;19929;-47
2022/06/08 13:58:12;;;;;;;;;;;20.80;45.40;;;;;;5162799;27;19937;-44
2022/06/08 14:00:40;;;;;;;;;;;21.60;43.60;;;;;;5168277;27;20271;-45
2022/06/08 14:03:08;;;;;;;;;;;21.90;43.00;;;;;;5144905;27;20338;-46
2022/06/08 14:13:50;;;;;;;;;;;22.20;42.80;;;;;;5162182;27;20370;-47
2022/06/08 14:16:15;;;;;;;;;;;22.30;42.80;;;;;;5165194;27;19948;-52
2022/06/08 14:18:43;;;;;;;;;;;22.30;42.90;;;;;;5146926;27;20500;-45
2022/06/08 14:21:08;;;;;;;;;;;21.90;43.00;;;;;;5162435;27;20390;-47
2022/06/08 14:23:34;;;;;;;;;;;21.90;42.20;;;;;;5167755;27;20040;-47
2022/06/08 14:26:00;;;;;;;;;;;21.80;42.60;;;;;;5159698;27;19930;-50
2022/06/08 14:28:26;;;;;;;;;;;22.10;43.60;;;;;;5141293;27;19931;-45
2022/06/08 14:30:52;;;;;;;;;;;22.20;43.60;;;;;;5167394;27;19949;-45
2022/06/08 14:33:20;;;;;;;;;;;22.30;43.20;;;;;;5162853;27;20388;-48
2022/06/08 14:35:48;;;;;;;;;;;22.30;42.80;;;;;;5164306;27;20017;-49
2022/06/08 14:38:15;;;;;;;;;;;20.60;45.70;;;;;;5168509;27;19922;-47
2022/06/08 14:40:41;;;;;;;;;;;20.00;46.90;;;;;;5162284;27;19966;-45
2022/06/08 14:43:07;;;;;;;;;;;21.00;45.30;;;;;;5162197;27;19923;-43
2022/06/08 14:45:33;;;;;;;;;;;21.70;43.90;;;;;;5160220;27;19934;-44
2022/06/08 14:47:59;;;;;;;;;;;22.00;43.30;;;;;;5142228;27;19923;-44
2022/06/08 14:50:27;;;;;;;;;;;22.10;43.00;;;;;;5167397;27;19922;-44
2022/06/08 14:52:54;;;;;;;;;;;22.20;43.00;;;;;;5162510;27;19986;-44